sensor_id;sensor_type;location;lat;lon;timestamp;pressure;altitude;pressure_sealevel;temperature;humidity
72157;BME280;60035;52.122;5.406;2023-02-02T00:01:51;102290.88;;;6.98;100.00
72157;BME280;60035;52.122;5.406;2023-02-02T00:06:46;102290.88;;;6.97;100.00
72157;BME280;60035;52.122;5.406;2023-02-02T00:09:14;102291.75;;;6.97;100.00
72157;BME280;60035;52.122;5.406;2023-02-02T00:11:42;102289.19;;;6.99;100.00
72157;BME280;60035;52.122;5.406;2023-02-02T00:14:12;102293.44;;;6.98;100.00
72157;BME280;60035;52.122;5.406;2023-02-02T00:19:11;102298.50;;;6.97;100.00
72157;BME280;60035;52.122;5.406;2023-02-02T00:21:38;102295.97;;;6.97;100.00
72157;BME280;60035;52.122;5.406;2023-02-02T00:24:06;102301.06;;;6.97;100.00
72157;BME280;60035;52.122;5.406;2023-02-02T00:26:33;102295.13;;;6.95;100.00
72157;BME280;60035;52.122;5.406;2023-02-02T00:29:01;102295.09;;;6.93;100.00
72157;BME280;60035;52.122;5.406;2023-02-02T00:31:27;102291.69;;;6.93;100.00
72157;BME280;60035;52.122;5.406;2023-02-02T00:33:54;102286.59;;;6.91;100.00
72157;BME280;60035;52.122;5.406;2023-02-02T00:36:21;102295.06;;;6.92;100.00
72157;BME280;60035;52.122;5.406;2023-02-02T00:38:48;102285.75;;;6.92;100.00
72157;BME280;60035;52.122;5.406;2023-02-02T00:41:16;102287.41;;;6.90;100.00
72157;BME280;60035;52.122;5.406;2023-02-02T00:43:42;102294.22;;;6.90;100.00
72157;BME280;60035;52.122;5.406;2023-02-02T00:46:13;102295.03;;;6.89;100.00
72157;BME280;60035;52.122;5.406;2023-02-02T00:48:42;102295.06;;;6.90;100.00
72157;BME280;60035;52.122;5.406;2023-02-02T00:51:09;102288.28;;;6.91;100.00
72157;BME280;60035;52.122;5.406;2023-02-02T00:53:35;102294.19;;;6.88;100.00
72157;BME280;60035;52.122;5.406;2023-02-02T00:56:02;102294.19;;;6.87;100.00
72157;BME280;60035;52.122;5.406;2023-02-02T00:58:28;102298.41;;;6.86;100.00
72157;BME280;60035;52.122;5.406;2023-02-02T01:00:55;102294.16;;;6.83;100.00
72157;BME280;60035;52.122;5.406;2023-02-02T01:03:22;102296.69;;;6.83;100.00
72157;BME280;60035;52.122;5.406;2023-02-02T01:05:48;102306.03;;;6.81;100.00
72157;BME280;60035;52.122;5.406;2023-02-02T01:08:16;102302.59;;;6.81;100.00
72157;BME280;60035;52.122;5.406;2023-02-02T01:10:43;102305.13;;;6.79;100.00
72157;BME280;60035;52.122;5.406;2023-02-02T01:13:10;102300.03;;;6.76;100.00
72157;BME280;60035;52.122;5.406;2023-02-02T01:15:36;102298.31;;;6.74;100.00
72157;BME280;60035;52.122;5.406;2023-02-02T01:18:03;102305.94;;;6.72;100.00
72157;BME280;60035;52.122;5.406;2023-02-02T01:20:29;102320.31;;;6.70;100.00
72157;BME280;60035;52.122;5.406;2023-02-02T01:22:56;102309.25;;;6.66;100.00
72157;BME280;60035;52.122;5.406;2023-02-02T01:25:23;102307.53;;;6.64;100.00
72157;BME280;60035;52.122;5.406;2023-02-02T01:27:50;102304.13;;;6.62;100.00
72157;BME280;60035;52.122;5.406;2023-02-02T01:30:16;102317.69;;;6.61;100.00
72157;BME280;60035;52.122;5.406;2023-02-02T01:32:43;102315.09;;;6.58;100.00
72157;BME280;60035;52.122;5.406;2023-02-02T01:35:09;102321.03;;;6.57;100.00
72157;BME280;60035;52.122;5.406;2023-02-02T01:37:37;102317.66;;;6.56;100.00
72157;BME280;60035;52.122;5.406;2023-02-02T01:40:05;102313.38;;;6.54;100.00
72157;BME280;60035;52.122;5.406;2023-02-02T01:42:32;102317.56;;;6.52;100.00
72157;BME280;60035;52.122;5.406;2023-02-02T01:45:04;102322.66;;;6.52;100.00
72157;BME280;60035;52.122;5.406;2023-02-02T01:47:42;102315.84;;;6.49;100.00
72157;BME280;60035;52.122;5.406;2023-02-02T01:50:12;102321.75;;;6.46;100.00
72157;BME280;60035;52.122;5.406;2023-02-02T01:52:43;102325.13;;;6.45;100.00
72157;BME280;60035;52.122;5.406;2023-02-02T01:55:13;102329.38;;;6.46;100.00
72157;BME280;60035;52.122;5.406;2023-02-02T01:57:51;102326.84;;;6.45;100.00
72157;BME280;60035;52.122;5.406;2023-02-02T02:00:18;102326.81;;;6.42;100.00
72157;BME280;60035;52.122;5.406;2023-02-02T02:02:52;102325.06;;;6.39;100.00
72157;BME280;60035;52.122;5.406;2023-02-02T02:05:26;102325.03;;;6.38;100.00
72157;BME280;60035;52.122;5.406;2023-02-02T02:07:59;102319.09;;;6.36;100.00
72157;BME280;60035;52.122;5.406;2023-02-02T02:10:28;102328.44;;;6.35;100.00
72157;BME280;60035;52.122;5.406;2023-02-02T02:12:54;102323.34;;;6.35;100.00
72157;BME280;60035;52.122;5.406;2023-02-02T02:15:21;102316.53;;;6.36;100.00
72157;BME280;60035;52.122;5.406;2023-02-02T02:20:56;102314.84;;;6.34;100.00
72157;BME280;60035;52.122;5.406;2023-02-02T02:24:00;102303.00;;;6.35;100.00
72157;BME280;60035;52.122;5.406;2023-02-02T02:35:35;102302.94;;;6.32;100.00
72157;BME280;60035;52.122;5.406;2023-02-02T02:38:27;102301.22;;;6.31;100.00
72157;BME280;60035;52.122;5.406;2023-02-02T02:40:59;102296.13;;;6.31;100.00
72157;BME280;60035;52.122;5.406;2023-02-02T02:43:38;102293.59;;;6.31;100.00
72157;BME280;60035;52.122;5.406;2023-02-02T02:46:06;102294.47;;;6.33;100.00
72157;BME280;60035;52.122;5.406;2023-02-02T02:48:33;102285.19;;;6.37;100.00
72157;BME280;60035;52.122;5.406;2023-02-02T02:51:08;102278.41;;;6.37;100.00
72157;BME280;60035;52.122;5.406;2023-02-02T02:53:54;102268.22;;;6.39;100.00
72157;BME280;60035;52.122;5.406;2023-02-02T02:56:30;102280.13;;;6.41;100.00
72157;BME280;60035;52.122;5.406;2023-02-02T02:59:06;102275.94;;;6.43;100.00
72157;BME280;60035;52.122;5.406;2023-02-02T03:01:40;102269.19;;;6.47;100.00
72157;BME280;60035;52.122;5.406;2023-02-02T03:04:29;102274.31;;;6.50;100.00
72157;BME280;60035;52.122;5.406;2023-02-02T03:07:26;102268.41;;;6.56;100.00
72157;BME280;60035;52.122;5.406;2023-02-02T03:09:56;102277.75;;;6.57;100.00
72157;BME280;60035;52.122;5.406;2023-02-02T03:12:24;102277.78;;;6.58;100.00
72157;BME280;60035;52.122;5.406;2023-02-02T03:14:50;102291.41;;;6.65;100.00
72157;BME280;60035;52.122;5.406;2023-02-02T03:17:17;102296.50;;;6.66;100.00
72157;BME280;60035;52.122;5.406;2023-02-02T03:19:43;102297.41;;;6.69;100.00
72157;BME280;60035;52.122;5.406;2023-02-02T03:22:10;102300.84;;;6.72;100.00
72157;BME280;60035;52.122;5.406;2023-02-02T03:24:36;102301.69;;;6.74;100.00
72157;BME280;60035;52.122;5.406;2023-02-02T03:27:03;102300.88;;;6.77;100.00
72157;BME280;60035;52.122;5.406;2023-02-02T03:29:30;102300.06;;;6.81;100.00
72157;BME280;60035;52.122;5.406;2023-02-02T03:31:57;102309.44;;;6.85;100.00
72157;BME280;60035;52.122;5.406;2023-02-02T03:34:24;102318.78;;;6.88;100.00
72157;BME280;60035;52.122;5.406;2023-02-02T03:36:50;102319.66;;;6.87;100.00
72157;BME280;60035;52.122;5.406;2023-02-02T03:39:16;102312.03;;;6.90;100.00
72157;BME280;60035;52.122;5.406;2023-02-02T03:41:43;102306.06;;;6.88;100.00
72157;BME280;60035;52.122;5.406;2023-02-02T03:44:09;102309.50;;;6.90;100.00
72157;BME280;60035;52.122;5.406;2023-02-02T03:46:36;102304.41;;;6.91;100.00
72157;BME280;60035;52.122;5.406;2023-02-02T03:49:02;102305.28;;;6.93;100.00
72157;BME280;60035;52.122;5.406;2023-02-02T03:51:29;102305.28;;;6.95;100.00
72157;BME280;60035;52.122;5.406;2023-02-02T03:53:55;102307.84;;;6.98;100.00
72157;BME280;60035;52.122;5.406;2023-02-02T03:56:22;102307.88;;;6.99;100.00
72157;BME280;60035;52.122;5.406;2023-02-02T03:58:48;102308.75;;;7.00;100.00
72157;BME280;60035;52.122;5.406;2023-02-02T04:01:15;102307.88;;;7.01;100.00
72157;BME280;60035;52.122;5.406;2023-02-02T04:03:41;102301.94;;;7.00;100.00
72157;BME280;60035;52.122;5.406;2023-02-02T04:06:08;102298.56;;;7.03;100.00
72157;BME280;60035;52.122;5.406;2023-02-02T04:08:35;102297.75;;;7.07;100.00
72157;BME280;60035;52.122;5.406;2023-02-02T04:11:01;102301.16;;;7.08;100.00
72157;BME280;60035;52.122;5.406;2023-02-02T04:13:28;102293.50;;;7.08;100.00
72157;BME280;60035;52.122;5.406;2023-02-02T04:16:00;102296.91;;;7.08;100.00
72157;BME280;60035;52.122;5.406;2023-02-02T04:18:27;102310.50;;;7.10;100.00
72157;BME280;60035;52.122;5.406;2023-02-02T04:20:58;102296.94;;;7.11;100.00
72157;BME280;60035;52.122;5.406;2023-02-02T04:23:25;102299.50;;;7.11;100.00
72157;BME280;60035;52.122;5.406;2023-02-02T04:25:53;102291.84;;;7.11;100.00
72157;BME280;60035;52.122;5.406;2023-02-02T04:28:20;102285.91;;;7.12;100.00
72157;BME280;60035;52.122;5.406;2023-02-02T04:30:48;102277.44;;;7.13;100.00
72157;BME280;60035;52.122;5.406;2023-02-02T04:33:15;102285.91;;;7.12;100.00
72157;BME280;60035;52.122;5.406;2023-02-02T04:35:42;102296.94;;;7.13;100.00
72157;BME280;60035;52.122;5.406;2023-02-02T04:38:09;102303.75;;;7.15;100.00
72157;BME280;60035;52.122;5.406;2023-02-02T04:40:40;102310.56;;;7.16;100.00
72157;BME280;60035;52.122;5.406;2023-02-02T04:43:07;102300.38;;;7.16;100.00
72157;BME280;60035;52.122;5.406;2023-02-02T04:45:34;102305.47;;;7.18;100.00
72157;BME280;60035;52.122;5.406;2023-02-02T04:48:01;102303.81;;;7.20;100.00
72157;BME280;60035;52.122;5.406;2023-02-02T04:50:28;102308.91;;;7.22;100.00
72157;BME280;60035;52.122;5.406;2023-02-02T04:52:55;102310.63;;;7.24;100.00
72157;BME280;60035;52.122;5.406;2023-02-02T04:55:21;102328.53;;;7.30;100.00
72157;BME280;60035;52.122;5.406;2023-02-02T04:57:48;102318.34;;;7.30;100.00
72157;BME280;60035;52.122;5.406;2023-02-02T05:00:15;102328.53;;;7.30;100.00
72157;BME280;60035;52.122;5.406;2023-02-02T05:02:42;102327.66;;;7.31;100.00
72157;BME280;60035;52.122;5.406;2023-02-02T05:05:11;102320.91;;;7.33;100.00
72157;BME280;60035;52.122;5.406;2023-02-02T05:07:38;102321.75;;;7.34;100.00
72157;BME280;60035;52.122;5.406;2023-02-02T05:10:06;102327.72;;;7.36;100.00
72157;BME280;60035;52.122;5.406;2023-02-02T05:12:34;102332.81;;;7.38;100.00
72157;BME280;60035;52.122;5.406;2023-02-02T05:15:00;102319.25;;;7.37;100.00
72157;BME280;60035;52.122;5.406;2023-02-02T05:17:28;102336.25;;;7.40;100.00
72157;BME280;60035;52.122;5.406;2023-02-02T05:19:55;102324.34;;;7.42;100.00
72157;BME280;60035;52.122;5.406;2023-02-02T05:22:21;102319.25;;;7.43;100.00
72157;BME280;60035;52.122;5.406;2023-02-02T05:24:48;102323.53;;;7.41;100.00
72157;BME280;60035;52.122;5.406;2023-02-02T05:27:14;102314.22;;;7.45;100.00
72157;BME280;60035;52.122;5.406;2023-02-02T05:29:41;102324.38;;;7.43;100.00
72157;BME280;60035;52.122;5.406;2023-02-02T05:32:07;102325.22;;;7.42;100.00
72157;BME280;60035;52.122;5.406;2023-02-02T05:34:34;102321.81;;;7.42;100.00
72157;BME280;60035;52.122;5.406;2023-02-02T05:37:00;102329.44;;;7.42;100.00
72157;BME280;60035;52.122;5.406;2023-02-02T05:39:27;102326.06;;;7.40;100.00
72157;BME280;60035;52.122;5.406;2023-02-02T05:41:53;102324.34;;;7.40;100.00
72157;BME280;60035;52.122;5.406;2023-02-02T05:44:20;102326.06;;;7.41;100.00
72157;BME280;60035;52.122;5.406;2023-02-02T05:46:46;102326.06;;;7.41;100.00
72157;BME280;60035;52.122;5.406;2023-02-02T05:49:13;102326.06;;;7.40;100.00
72157;BME280;60035;52.122;5.406;2023-02-02T05:51:43;102326.06;;;7.40;100.00
72157;BME280;60035;52.122;5.406;2023-02-02T05:54:10;102324.34;;;7.39;100.00
72157;BME280;60035;52.122;5.406;2023-02-02T05:56:37;102332.00;;;7.39;100.00
72157;BME280;60035;52.122;5.406;2023-02-02T05:59:04;102330.28;;;7.39;100.00
72157;BME280;60035;52.122;5.406;2023-02-02T06:01:33;102337.09;;;7.39;100.00
72157;BME280;60035;52.122;5.406;2023-02-02T06:03:59;102338.75;;;7.37;100.00
72157;BME280;60035;52.122;5.406;2023-02-02T06:06:26;102337.03;;;7.34;100.00
72157;BME280;60035;52.122;5.406;2023-02-02T06:08:53;102338.72;;;7.32;100.00
72157;BME280;60035;52.122;5.406;2023-02-02T06:11:19;102339.56;;;7.31;100.00
72157;BME280;60035;52.122;5.406;2023-02-02T06:13:46;102339.56;;;7.29;100.00
72157;BME280;60035;52.122;5.406;2023-02-02T06:16:12;102344.59;;;7.25;100.00
72157;BME280;60035;52.122;5.406;2023-02-02T06:18:39;102338.66;;;7.23;100.00
72157;BME280;60035;52.122;5.406;2023-02-02T06:21:05;102346.25;;;7.20;100.00
72157;BME280;60035;52.122;5.406;2023-02-02T06:23:33;102346.22;;;7.16;100.00
72157;BME280;60035;52.122;5.406;2023-02-02T06:25:59;102355.56;;;7.14;100.00
72157;BME280;60035;52.122;5.406;2023-02-02T06:28:26;102340.25;;;7.13;100.00
72157;BME280;60035;52.122;5.406;2023-02-02T06:30:53;102348.72;;;7.10;100.00
72157;BME280;60035;52.122;5.406;2023-02-02T06:33:19;102359.78;;;7.14;100.00
72157;BME280;60035;52.122;5.406;2023-02-02T06:35:46;102358.06;;;7.11;100.00
72157;BME280;60035;52.122;5.406;2023-02-02T06:38:12;102369.09;;;7.10;100.00
72157;BME280;60035;52.122;5.406;2023-02-02T06:40:39;102368.25;;;7.10;100.00
72157;BME280;60035;52.122;5.406;2023-02-02T06:43:05;102369.91;;;7.08;100.00
72157;BME280;60035;52.122;5.406;2023-02-02T06:45:32;102375.88;;;7.07;100.00
72157;BME280;60035;52.122;5.406;2023-02-02T06:47:59;102377.53;;;7.06;100.00
72157;BME280;60035;52.122;5.406;2023-02-02T06:50:29;102371.59;;;7.06;100.00
72157;BME280;60035;52.122;5.406;2023-02-02T06:52:55;102379.25;;;7.06;100.00
72157;BME280;60035;52.122;5.406;2023-02-02T06:55:22;102388.59;;;7.07;100.00
72157;BME280;60035;52.122;5.406;2023-02-02T06:57:55;102382.66;;;7.08;100.00
72157;BME280;60035;52.122;5.406;2023-02-02T07:00:21;102381.81;;;7.07;100.00
72157;BME280;60035;52.122;5.406;2023-02-02T07:02:48;102385.19;;;7.06;100.00
72157;BME280;60035;52.122;5.406;2023-02-02T07:05:15;102386.00;;;7.04;100.00
72157;BME280;60035;52.122;5.406;2023-02-02T07:07:41;102377.53;;;7.03;100.00
72157;BME280;60035;52.122;5.406;2023-02-02T07:10:08;102374.97;;;7.02;100.00
72157;BME280;60035;52.122;5.406;2023-02-02T07:12:54;102375.81;;;7.02;100.00
72157;BME280;60035;52.122;5.406;2023-02-02T07:15:21;102373.25;;;6.99;100.00
72157;BME280;60035;52.122;5.406;2023-02-02T07:17:48;102379.19;;;7.01;100.00
72157;BME280;60035;52.122;5.406;2023-02-02T07:20:14;102380.91;;;7.00;100.00
72157;BME280;60035;52.122;5.406;2023-02-02T07:22:41;102393.63;;;7.00;100.00
72157;BME280;60035;52.122;5.406;2023-02-02T07:25:07;102386.81;;;7.01;100.00
72157;BME280;60035;52.122;5.406;2023-02-02T07:27:37;102380.00;;;6.98;100.00
72157;BME280;60035;52.122;5.406;2023-02-02T07:30:03;102390.19;;;6.97;100.00
72157;BME280;60035;52.122;5.406;2023-02-02T07:32:30;102402.09;;;6.98;100.00
72157;BME280;60035;52.122;5.406;2023-02-02T07:34:57;102408.03;;;6.98;100.00
72157;BME280;60035;52.122;5.406;2023-02-02T07:37:23;102411.44;;;6.99;100.00
72157;BME280;60035;52.122;5.406;2023-02-02T07:39:52;102407.19;;;7.01;100.00
72157;BME280;60035;52.122;5.406;2023-02-02T07:42:19;102410.63;;;7.02;100.00
72157;BME280;60035;52.122;5.406;2023-02-02T07:44:45;102414.91;;;7.04;100.00
72157;BME280;60035;52.122;5.406;2023-02-02T07:47:12;102421.72;;;7.08;100.00
72157;BME280;60035;52.122;5.406;2023-02-02T07:49:38;102411.53;;;7.08;100.00
72157;BME280;60035;52.122;5.406;2023-02-02T07:52:05;102409.00;;;7.10;100.00
72157;BME280;60035;52.122;5.406;2023-02-02T07:54:32;102422.63;;;7.13;100.00
72157;BME280;60035;52.122;5.406;2023-02-02T07:56:58;102413.28;;;7.12;100.00
72157;BME280;60035;52.122;5.406;2023-02-02T07:59:27;102423.50;;;7.15;100.00
72157;BME280;60035;52.122;5.406;2023-02-02T08:01:56;102425.22;;;7.16;100.00
72157;BME280;60035;52.122;5.406;2023-02-02T08:04:23;102428.63;;;7.17;100.00
72157;BME280;60035;52.122;5.406;2023-02-02T08:06:49;102419.28;;;7.17;100.00
72157;BME280;60035;52.122;5.406;2023-02-02T08:09:16;102442.22;;;7.21;100.00
72157;BME280;60035;52.122;5.406;2023-02-02T08:11:43;102427.81;;;7.21;100.00
72157;BME280;60035;52.122;5.406;2023-02-02T08:14:11;102442.28;;;7.25;100.00
72157;BME280;60035;52.122;5.406;2023-02-02T08:16:38;102444.84;;;7.27;100.00
72157;BME280;60035;52.122;5.406;2023-02-02T08:19:05;102445.69;;;7.27;100.00
72157;BME280;60035;52.122;5.406;2023-02-02T08:21:32;102439.75;;;7.28;100.00
72157;BME280;60035;52.122;5.406;2023-02-02T08:23:59;102449.13;;;7.31;100.00
72157;BME280;60035;52.122;5.406;2023-02-02T08:26:29;102459.34;;;7.34;100.00
72157;BME280;60035;52.122;5.406;2023-02-02T08:28:58;102457.66;;;7.33;100.00
72157;BME280;60035;52.122;5.406;2023-02-02T08:31:31;102456.78;;;7.32;100.00
72157;BME280;60035;52.122;5.406;2023-02-02T08:33:58;102466.13;;;7.32;100.00
72157;BME280;60035;52.122;5.406;2023-02-02T08:36:27;102465.31;;;7.34;100.00
72157;BME280;60035;52.122;5.406;2023-02-02T08:38:54;102469.59;;;7.37;100.00
72157;BME280;60035;52.122;5.406;2023-02-02T08:41:22;102472.16;;;7.39;100.00
72157;BME280;60035;52.122;5.406;2023-02-02T08:43:49;102478.09;;;7.41;100.00
72157;BME280;60035;52.122;5.406;2023-02-02T08:46:17;102479.81;;;7.43;100.00
72157;BME280;60035;52.122;5.406;2023-02-02T08:48:44;102484.97;;;7.46;100.00
72157;BME280;60035;52.122;5.406;2023-02-02T08:51:13;102484.09;;;7.46;100.00
72157;BME280;60035;52.122;5.406;2023-02-02T08:53:41;102485.00;;;7.51;100.00
72157;BME280;60035;52.122;5.406;2023-02-02T08:56:13;102488.44;;;7.53;100.00
72157;BME280;60035;52.122;5.406;2023-02-02T08:58:45;102489.31;;;7.57;100.00
72157;BME280;60035;52.122;5.406;2023-02-02T09:01:18;102487.66;;;7.62;100.00
72157;BME280;60035;52.122;5.406;2023-02-02T09:03:45;102490.25;;;7.65;100.00
72157;BME280;60035;52.122;5.406;2023-02-02T09:06:14;102494.53;;;7.69;100.00
72157;BME280;60035;52.122;5.406;2023-02-02T09:08:41;102485.19;;;7.70;100.00
72157;BME280;60035;52.122;5.406;2023-02-02T09:11:10;102490.34;;;7.74;100.00
72157;BME280;60035;52.122;5.406;2023-02-02T09:13:38;102490.34;;;7.77;100.00
72157;BME280;60035;52.122;5.406;2023-02-02T09:16:08;102501.38;;;7.78;100.00
72157;BME280;60035;52.122;5.406;2023-02-02T09:18:36;102504.00;;;7.82;100.00
72157;BME280;60035;52.122;5.406;2023-02-02T09:21:05;102517.66;;;7.86;100.00
72157;BME280;60035;52.122;5.406;2023-02-02T09:23:34;102515.94;;;7.90;100.00
72157;BME280;60035;52.122;5.406;2023-02-02T09:26:28;102515.16;;;7.95;100.00
72157;BME280;60035;52.122;5.406;2023-02-02T09:28:58;102521.13;;;7.99;100.00
72157;BME280;60035;52.122;5.406;2023-02-02T09:31:25;102523.72;;;8.00;100.00
72157;BME280;60035;52.122;5.406;2023-02-02T09:33:52;102531.38;;;8.04;100.00
72157;BME280;60035;52.122;5.406;2023-02-02T09:36:21;102526.28;;;8.04;100.00
72157;BME280;60035;52.122;5.406;2023-02-02T09:38:49;102526.28;;;8.05;100.00
72157;BME280;60035;52.122;5.406;2023-02-02T09:41:30;102529.72;;;8.06;100.00
72157;BME280;60035;52.122;5.406;2023-02-02T09:46:52;102537.34;;;8.04;100.00
72157;BME280;60035;52.122;5.406;2023-02-02T09:52:07;102533.94;;;8.00;100.00
72157;BME280;60035;52.122;5.406;2023-02-02T09:54:48;102539.03;;;8.00;100.00
72157;BME280;60035;52.122;5.406;2023-02-02T09:57:21;102533.88;;;7.97;100.00
72157;BME280;60035;52.122;5.406;2023-02-02T09:59:51;102542.41;;;7.96;100.00
72157;BME280;60035;52.122;5.406;2023-02-02T10:02:52;102547.50;;;7.96;100.00
72157;BME280;60035;52.122;5.406;2023-02-02T10:05:26;102545.78;;;7.98;100.00
72157;BME280;60035;52.122;5.406;2023-02-02T10:07:58;102546.69;;;8.02;100.00
72157;BME280;60035;52.122;5.406;2023-02-02T10:10:39;102560.34;;;8.06;100.00
72157;BME280;60035;52.122;5.406;2023-02-02T10:13:17;102562.88;;;8.06;100.00
72157;BME280;60035;52.122;5.406;2023-02-02T10:16:02;102562.88;;;8.06;100.00
72157;BME280;60035;52.122;5.406;2023-02-02T10:18:46;102564.56;;;8.05;100.00
72157;BME280;60035;52.122;5.406;2023-02-02T10:24:01;102579.03;;;8.06;100.00
72157;BME280;60035;52.122;5.406;2023-02-02T10:26:49;102576.50;;;8.11;100.00
72157;BME280;60035;52.122;5.406;2023-02-02T10:29:21;102586.75;;;8.14;100.00
72157;BME280;60035;52.122;5.406;2023-02-02T10:32:26;102579.13;;;8.15;100.00
72157;BME280;60035;52.122;5.406;2023-02-02T10:37:57;102584.31;;;8.25;100.00
72157;BME280;60035;52.122;5.406;2023-02-02T10:46:19;102586.03;;;8.29;100.00
72157;BME280;60035;52.122;5.406;2023-02-02T10:48:48;102581.81;;;8.31;100.00
72157;BME280;60035;52.122;5.406;2023-02-02T10:51:28;102590.31;;;8.31;100.00
72157;BME280;60035;52.122;5.406;2023-02-02T10:53:57;102587.75;;;8.30;100.00
72157;BME280;60035;52.122;5.406;2023-02-02T10:56:32;102592.78;;;8.25;100.00
72157;BME280;60035;52.122;5.406;2023-02-02T10:59:05;102585.13;;;8.24;100.00
72157;BME280;60035;52.122;5.406;2023-02-02T11:01:35;102595.34;;;8.22;100.00
72157;BME280;60035;52.122;5.406;2023-02-02T11:04:01;102591.94;;;8.22;100.00
72157;BME280;60035;52.122;5.406;2023-02-02T11:06:46;102607.25;;;8.23;100.00
72157;BME280;60035;52.122;5.406;2023-02-02T11:09:22;102593.63;;;8.23;100.00
72157;BME280;60035;52.122;5.406;2023-02-02T11:12:15;102592.78;;;8.22;100.00
72157;BME280;60035;52.122;5.406;2023-02-02T11:14:59;102578.34;;;8.26;100.00
72157;BME280;60035;52.122;5.406;2023-02-02T11:17:27;102582.63;;;8.28;100.00
72157;BME280;60035;52.122;5.406;2023-02-02T11:19:55;102585.19;;;8.31;100.00
72157;BME280;60035;52.122;5.406;2023-02-02T11:22:31;102590.34;;;8.36;99.94
72157;BME280;60035;52.122;5.406;2023-02-02T11:30:07;102581.88;;;8.40;99.04
72157;BME280;60035;52.122;5.406;2023-02-02T11:32:34;102586.16;;;8.44;98.77
72157;BME280;60035;52.122;5.406;2023-02-02T11:37:30;102582.81;;;8.52;98.87
72157;BME280;60035;52.122;5.406;2023-02-02T11:42:48;102581.09;;;8.49;97.71
72157;BME280;60035;52.122;5.406;2023-02-02T11:45:45;102587.91;;;8.47;97.58
72157;BME280;60035;52.122;5.406;2023-02-02T11:48:20;102579.44;;;8.49;97.48
72157;BME280;60035;52.122;5.406;2023-02-02T11:50:49;102588.81;;;8.54;97.19
72157;BME280;60035;52.122;5.406;2023-02-02T11:55:59;102578.63;;;8.57;96.96
72157;BME280;60035;52.122;5.406;2023-02-02T12:01:37;102575.22;;;8.56;96.00
72157;BME280;60035;52.122;5.406;2023-02-02T12:06:43;102577.78;;;8.56;96.30
72157;BME280;60035;52.122;5.406;2023-02-02T12:09:16;102576.91;;;8.56;95.92
72157;BME280;60035;52.122;5.406;2023-02-02T12:12:10;102581.16;;;8.57;95.83
72157;BME280;60035;52.122;5.406;2023-02-02T12:20:11;102571.78;;;8.51;95.48
72157;BME280;60035;52.122;5.406;2023-02-02T12:28:14;102571.69;;;8.45;95.09
72157;BME280;60035;52.122;5.406;2023-02-02T12:31:08;102561.47;;;8.43;95.35
72157;BME280;60035;52.122;5.406;2023-02-02T12:33:57;102564.84;;;8.41;95.31
72157;BME280;60035;52.122;5.406;2023-02-02T12:39:08;102567.41;;;8.39;95.49
72157;BME280;60035;52.122;5.406;2023-02-02T12:44:55;102560.56;;;8.37;95.07
72157;BME280;60035;52.122;5.406;2023-02-02T12:58:40;102565.69;;;8.37;96.26
72157;BME280;60035;52.122;5.406;2023-02-02T13:01:21;102560.56;;;8.35;96.14
72157;BME280;60035;52.122;5.406;2023-02-02T13:03:59;102557.97;;;8.32;96.48
72157;BME280;60035;52.122;5.406;2023-02-02T13:09:26;102562.16;;;8.22;97.79
72157;BME280;60035;52.122;5.406;2023-02-02T13:12:01;102558.69;;;8.15;98.55
72157;BME280;60035;52.122;5.406;2023-02-02T13:14:36;102556.13;;;8.12;99.43
72157;BME280;60035;52.122;5.406;2023-02-02T13:19:49;102563.72;;;8.08;100.00
72157;BME280;60035;52.122;5.406;2023-02-02T13:22:24;102567.09;;;8.04;100.00
72157;BME280;60035;52.122;5.406;2023-02-02T13:25:04;102563.66;;;8.00;100.00
72157;BME280;60035;52.122;5.406;2023-02-02T13:27:34;102572.19;;;8.00;100.00
72157;BME280;60035;52.122;5.406;2023-02-02T13:30:04;102570.47;;;7.99;100.00
72157;BME280;60035;52.122;5.406;2023-02-02T13:32:41;102573.81;;;7.94;100.00
72157;BME280;60035;52.122;5.406;2023-02-02T13:35:14;102582.31;;;7.93;100.00
72157;BME280;60035;52.122;5.406;2023-02-02T13:37:49;102575.50;;;7.90;100.00
72157;BME280;60035;52.122;5.406;2023-02-02T13:40:28;102576.31;;;7.89;100.00
72157;BME280;60035;52.122;5.406;2023-02-02T13:54:14;102575.41;;;7.84;100.00
72157;BME280;60035;52.122;5.406;2023-02-02T14:02:45;102573.75;;;7.84;100.00
72157;BME280;60035;52.122;5.406;2023-02-02T14:05:33;102583.91;;;7.83;100.00
72157;BME280;60035;52.122;5.406;2023-02-02T14:10:55;102574.59;;;7.87;100.00
72157;BME280;60035;52.122;5.406;2023-02-02T14:13:43;102576.31;;;7.86;100.00
72157;BME280;60035;52.122;5.406;2023-02-02T14:19:05;102578.03;;;7.92;100.00
72157;BME280;60035;52.122;5.406;2023-02-02T14:26:53;102590.78;;;7.90;100.00
72157;BME280;60035;52.122;5.406;2023-02-02T14:34:50;102595.88;;;7.89;100.00
72157;BME280;60035;52.122;5.406;2023-02-02T14:48:46;102596.63;;;7.78;100.00
72157;BME280;60035;52.122;5.406;2023-02-02T14:51:18;102603.38;;;7.76;100.00
72157;BME280;60035;52.122;5.406;2023-02-02T14:56:18;102608.47;;;7.73;100.00
72157;BME280;60035;52.122;5.406;2023-02-02T15:06:40;102617.75;;;7.70;100.00
72157;BME280;60035;52.122;5.406;2023-02-02T15:20:25;102616.94;;;7.71;100.00
72157;BME280;60035;52.122;5.406;2023-02-02T15:25:49;102614.34;;;7.66;100.00
72157;BME280;60035;52.122;5.406;2023-02-02T15:28:23;102626.22;;;7.65;100.00
72157;BME280;60035;52.122;5.406;2023-02-02T15:30:53;102630.47;;;7.65;100.00
72157;BME280;60035;52.122;5.406;2023-02-02T15:33:34;102622.81;;;7.65;100.00
72157;BME280;60035;52.122;5.406;2023-02-02T15:36:13;102615.19;;;7.68;100.00
72157;BME280;60035;52.122;5.406;2023-02-02T15:38:43;102622.84;;;7.68;100.00
72157;BME280;60035;52.122;5.406;2023-02-02T15:41:21;102618.59;;;7.68;100.00
72157;BME280;60035;52.122;5.406;2023-02-02T15:43:49;102622.88;;;7.70;100.00